createdAt,value
2022-10-23T00:01:34.040Z,8.67
2022-10-23T00:06:34.042Z,8.65
2022-10-23T00:11:34.036Z,8.56
2022-10-23T00:16:34.041Z,8.53
2022-10-23T00:21:34.029Z,8.44
2022-10-23T00:26:34.026Z,8.43
2022-10-23T00:31:34.045Z,8.29
2022-10-23T00:36:34.017Z,8.18
2022-10-23T00:41:34.031Z,8.09
2022-10-23T00:46:34.018Z,7.99
2022-10-23T00:51:34.012Z,7.92
2022-10-23T00:56:34.003Z,7.78
2022-10-23T01:01:34.076Z,7.74
2022-10-23T01:06:33.995Z,7.74
2022-10-23T01:11:34.001Z,7.66
2022-10-23T01:16:34.009Z,7.68
2022-10-23T01:21:33.977Z,7.67
2022-10-23T01:26:34.022Z,7.63
2022-10-23T01:31:33.999Z,7.61
2022-10-23T01:36:33.972Z,7.61
2022-10-23T01:41:33.963Z,7.55
2022-10-23T01:46:33.960Z,7.48
2022-10-23T01:51:33.987Z,7.49
2022-10-23T01:56:33.958Z,7.38
2022-10-23T02:01:34.074Z,7.3
2022-10-23T02:06:33.950Z,7.24
2022-10-23T02:11:33.948Z,7.17
2022-10-23T02:16:33.948Z,7.1
2022-10-23T02:21:33.936Z,7.12
2022-10-23T02:26:33.924Z,7.15
2022-10-23T02:31:33.967Z,7.17
2022-10-23T02:36:33.942Z,7.17
2022-10-23T02:41:33.923Z,7.21
2022-10-23T02:46:33.924Z,7.33
2022-10-23T02:51:33.908Z,7.52
2022-10-23T02:56:35.482Z,7.68
2022-10-23T03:01:34.042Z,7.65
2022-10-23T03:06:33.894Z,7.68
2022-10-23T03:11:33.894Z,7.61
2022-10-23T03:16:33.885Z,7.47
2022-10-23T03:21:33.900Z,7.34
2022-10-23T03:26:33.906Z,7.24
2022-10-23T03:31:33.883Z,7.12
2022-10-23T03:36:33.863Z,7
2022-10-23T03:41:33.876Z,6.9
2022-10-23T03:46:33.872Z,6.82
2022-10-23T03:51:34.030Z,6.76
2022-10-23T03:56:33.854Z,6.72
2022-10-23T04:01:33.954Z,6.63
2022-10-23T04:06:33.838Z,6.59
2022-10-23T04:11:33.837Z,6.59
2022-10-23T04:16:33.853Z,6.52
2022-10-23T04:21:33.838Z,6.51
2022-10-23T04:26:33.836Z,6.44
2022-10-23T04:31:33.821Z,6.42
2022-10-23T04:36:33.895Z,6.33
2022-10-23T04:41:33.817Z,6.27
2022-10-23T04:46:33.822Z,6.26
2022-10-23T04:51:33.860Z,6.29
2022-10-23T04:56:33.805Z,6.24
2022-10-23T05:01:33.963Z,6.24
2022-10-23T05:06:33.850Z,6.26
2022-10-23T05:16:33.790Z,6.35
2022-10-23T05:21:33.785Z,6.42
2022-10-23T05:26:33.775Z,6.53
2022-10-23T05:31:33.775Z,6.63
2022-10-23T05:46:33.765Z,6.65
2022-10-23T05:51:33.774Z,6.7
2022-10-23T06:06:33.753Z,6.71
2022-10-23T06:16:33.738Z,6.82
2022-10-23T06:31:33.719Z,6.91
2022-10-23T06:41:33.722Z,7.24
2022-10-23T06:46:33.720Z,7.52
2022-10-23T06:51:33.733Z,7.82
2022-10-23T06:56:33.720Z,8.14
2022-10-23T07:01:33.874Z,8.39
2022-10-23T07:06:33.717Z,8.62
2022-10-23T07:11:33.721Z,8.87
2022-10-23T07:16:33.699Z,9.11
2022-10-23T07:21:33.702Z,9.22
2022-10-23T07:26:33.683Z,9.46
2022-10-23T07:31:33.694Z,9.77
2022-10-23T07:36:33.674Z,9.77
2022-10-23T07:41:33.699Z,9.95
2022-10-23T07:46:33.677Z,10.1
2022-10-23T07:51:33.666Z,10.32
2022-10-23T07:56:33.653Z,10.52
2022-10-23T08:01:33.867Z,10.62
2022-10-23T08:06:33.655Z,10.73
2022-10-23T08:11:33.633Z,10.94
2022-10-23T08:16:33.641Z,11.07
2022-10-23T08:21:33.627Z,11.24
2022-10-23T08:26:33.621Z,11.43
2022-10-23T08:31:33.644Z,11.63
2022-10-23T08:36:33.624Z,11.75
2022-10-23T08:41:33.618Z,11.98
2022-10-23T08:46:33.607Z,12.25
2022-10-23T08:51:33.606Z,12.59
2022-10-23T08:56:33.603Z,12.94
2022-10-23T09:01:33.695Z,13.37
2022-10-23T09:06:33.575Z,13.68
2022-10-23T09:11:33.578Z,13.96
2022-10-23T09:16:33.569Z,14.2
2022-10-23T09:21:33.577Z,14.35
2022-10-23T09:26:33.573Z,14.45
2022-10-23T09:31:33.556Z,14.72
2022-10-23T09:36:33.545Z,14.88
2022-10-23T09:41:33.552Z,14.96
2022-10-23T09:46:33.531Z,15.11
2022-10-23T09:51:33.536Z,15.06
2022-10-23T09:56:33.531Z,15.06
2022-10-23T10:01:33.678Z,15.07
2022-10-23T10:06:33.560Z,15.26
2022-10-23T10:11:33.502Z,15.39
2022-10-23T10:16:33.585Z,15.52
2022-10-23T10:21:33.502Z,15.78
2022-10-23T10:36:33.465Z,16.2
2022-10-23T10:41:33.482Z,16.19
2022-10-23T10:46:33.463Z,16.28
2022-10-23T10:51:33.456Z,16.43
2022-10-23T10:56:33.470Z,16.48
2022-10-23T11:11:33.430Z,16.49
2022-10-23T11:21:33.406Z,16.64
2022-10-23T11:26:33.438Z,16.79
2022-10-23T11:31:33.410Z,16.88
2022-10-23T11:36:33.397Z,16.99
2022-10-23T11:41:33.395Z,17.1
2022-10-23T11:46:33.406Z,17.18
2022-10-23T11:51:33.394Z,17.26
2022-10-23T11:56:33.385Z,17.36
2022-10-23T12:01:33.466Z,17.64
2022-10-23T12:06:33.378Z,17.85
2022-10-23T12:11:33.371Z,17.98
2022-10-23T12:16:33.352Z,18.04
2022-10-23T12:21:33.353Z,18.18
2022-10-23T12:26:33.359Z,18.4
2022-10-23T12:31:33.381Z,18.65
2022-10-23T12:36:33.347Z,18.8
2022-10-23T12:41:33.322Z,18.99
2022-10-23T12:46:33.317Z,18.96
2022-10-23T12:51:33.311Z,18.92
2022-10-23T12:56:35.080Z,18.92
2022-10-23T13:01:33.357Z,18.76
2022-10-23T13:06:33.294Z,18.76
2022-10-23T13:11:33.287Z,18.77
2022-10-23T13:16:33.278Z,18.8
2022-10-23T13:21:33.289Z,18.89
2022-10-23T13:26:33.282Z,18.99
2022-10-23T13:31:33.258Z,18.85
2022-10-23T13:36:33.276Z,18.87
2022-10-23T13:41:33.262Z,18.86
2022-10-23T13:46:33.250Z,18.77
2022-10-23T13:51:33.277Z,18.68
2022-10-23T13:56:33.237Z,18.59
2022-10-23T14:01:33.347Z,18.59
2022-10-23T14:06:33.221Z,18.49
2022-10-23T14:11:33.206Z,18.3
2022-10-23T14:16:33.223Z,18.12
2022-10-23T14:21:33.207Z,17.91
2022-10-23T14:26:33.205Z,17.8
2022-10-23T14:31:33.192Z,17.7
2022-10-23T14:36:38.253Z,17.59
2022-10-23T14:41:33.185Z,17.43
2022-10-23T14:46:33.162Z,17.26
2022-10-23T14:51:33.160Z,17.17
2022-10-23T14:56:33.174Z,17.07
2022-10-23T15:01:33.332Z,16.95
2022-10-23T15:06:33.145Z,16.81
2022-10-23T15:11:33.159Z,16.67
2022-10-23T15:16:33.167Z,16.51
2022-10-23T15:21:33.124Z,16.33
2022-10-23T15:26:33.112Z,16.19
2022-10-23T15:31:33.123Z,15.99
2022-10-23T15:36:33.102Z,15.81
2022-10-23T15:41:33.101Z,15.61
2022-10-23T15:46:33.090Z,15.39
2022-10-23T15:51:33.108Z,15.38
2022-10-23T15:56:33.069Z,15.19
2022-10-23T16:01:33.209Z,15.02
2022-10-23T16:06:33.071Z,14.9
2022-10-23T16:11:33.057Z,14.81
2022-10-23T16:16:33.054Z,14.7
2022-10-23T16:21:33.051Z,14.52
2022-10-23T16:26:33.047Z,14.42
2022-10-23T16:31:33.040Z,14.31
2022-10-23T16:36:33.041Z,14.27
2022-10-23T16:41:38.028Z,14.27
2022-10-23T16:46:33.027Z,14.27
2022-10-23T16:51:33.011Z,14.18
2022-10-23T16:56:33.016Z,14.19
2022-10-23T17:01:33.249Z,14.17
2022-10-23T17:06:32.995Z,14.09
2022-10-23T17:11:32.990Z,13.99
2022-10-23T17:16:33.000Z,13.9
2022-10-23T17:21:37.977Z,13.84
2022-10-23T17:26:32.982Z,13.74
2022-10-23T17:31:37.962Z,13.65
2022-10-23T17:36:32.966Z,13.53
2022-10-23T17:41:37.968Z,13.46
2022-10-23T17:46:32.948Z,13.34
2022-10-23T17:51:32.970Z,13.3
2022-10-23T17:56:32.948Z,13.16
2022-10-23T18:01:33.065Z,13.1
2022-10-23T18:06:32.950Z,12.99
2022-10-23T18:11:32.932Z,12.97
2022-10-23T18:16:32.917Z,13.02
2022-10-23T18:21:32.923Z,13.02
2022-10-23T18:26:32.917Z,12.98
2022-10-23T18:31:32.903Z,12.96
2022-10-23T18:36:37.910Z,12.93
2022-10-23T18:41:32.902Z,12.88
2022-10-23T18:46:37.866Z,12.91
2022-10-23T18:51:37.881Z,12.94
2022-10-23T18:56:32.873Z,12.94
2022-10-23T19:01:33.030Z,12.89
2022-10-23T19:06:37.850Z,12.84
2022-10-23T19:11:32.855Z,12.76
2022-10-23T19:16:37.853Z,12.64
2022-10-23T19:21:37.834Z,12.59
2022-10-23T19:26:32.844Z,12.55
2022-10-23T19:31:32.836Z,12.45
2022-10-23T19:41:32.823Z,12.28
2022-10-23T19:46:32.827Z,12.23
2022-10-23T19:51:32.812Z,12.19
2022-10-23T19:56:32.845Z,12.13
2022-10-23T20:11:32.779Z,11.99
2022-10-23T20:16:32.776Z,12
2022-10-23T20:21:32.780Z,12.07
2022-10-23T20:56:32.742Z,12.49
2022-10-23T21:01:32.868Z,12.51
2022-10-23T21:06:45.603Z,12.53
2022-10-23T21:11:32.726Z,12.58
2022-10-23T21:16:32.710Z,12.67
2022-10-23T21:21:32.717Z,12.73
2022-10-23T21:26:32.707Z,12.8
2022-10-23T21:31:32.712Z,12.89
2022-10-23T21:36:34.170Z,13.04
2022-10-23T21:41:32.701Z,13.18
2022-10-23T21:46:32.695Z,13.43
2022-10-23T21:51:32.691Z,14.27
2022-10-23T21:56:32.670Z,14.54
2022-10-23T22:11:58.738Z,14.54
2022-10-23T22:16:32.647Z,14.54
2022-10-23T22:21:32.639Z,14.59
2022-10-23T22:26:32.632Z,14.74
2022-10-23T22:31:32.661Z,14.92
2022-10-23T22:36:32.648Z,15.13
2022-10-23T22:41:32.628Z,15.3
2022-10-23T22:46:32.617Z,15.39
2022-10-23T22:51:32.609Z,15.5
2022-10-23T22:56:32.588Z,15.72
2022-10-23T23:01:32.661Z,15.85
2022-10-23T23:06:32.586Z,16.02
2022-10-23T23:11:36.977Z,16.21
2022-10-23T23:16:32.592Z,16.33
2022-10-23T23:21:32.580Z,16.38
2022-10-23T23:26:32.580Z,16.37
2022-10-23T23:31:32.579Z,16.38
2022-10-23T23:36:32.552Z,16.42
2022-10-23T23:41:32.587Z,16.43
2022-10-23T23:46:32.542Z,16.4
2022-10-23T23:51:32.549Z,16.46
2022-10-23T23:56:32.542Z,16.41
